Surface observations / UK / EGMC

Quebec | Canada | USA | France | UK | Europe | Elsewhere

Display: Info & Location for EGMC | Help decoding METAR

EGMC SOUTHEND-ON-SEA -- UK
Raw surface observations for station EGMC
EGMC 260350Z 21010KT 9999 SCT039 12/08 Q1021=
EGMC 260250Z 21010KT 9999 BKN034 12/08 Q1021=
EGMC 260220Z 22009KT 9999 BKN034 12/08 Q1021=
EGMC 260150Z 22012KT 9999 BKN035 12/08 Q1021=
EGMC 252350Z 21009KT 9999 BKN039 12/08 Q1021=
EGMC 252320Z 22008KT 9999 BKN040 12/08 Q1021=
EGMC 252250Z 21007KT 9999 BKN040 12/08 Q1021=
EGMC 252220Z 20007KT 9999 SCT042 11/08 Q1021=
EGMC 252150Z 20006KT 9999 FEW043 10/08 Q1021=
EGMC 252120Z 22007KT CAVOK 09/07 Q1021=
EGMC 252050Z 22007KT CAVOK 10/07 Q1021=
EGMC 252020Z 22007KT 9999 SCT030 10/07 Q1020=
EGMC 251920Z 22009KT 9999 SCT040 11/08 Q1020=
EGMC 251850Z 22009KT 9999 FEW040 12/08 Q1020=
EGMC 251820Z 22008KT 9999 FEW040 12/08 Q1020=
EGMC 251750Z 22008KT 9999 FEW043 12/08 Q1019=
EGMC 251720Z 22009KT 9999 FEW040 13/08 Q1019=
EGMC 251650Z 22008KT 9999 FEW040 14/08 Q1019=
EGMC 251620Z 21010KT 9999 FEW040 14/08 Q1018=
EGMC 251550Z 23009KT 9999 FEW043 13/07 Q1018=
EGMC 251520Z 22013KT 9999 FEW043 15/07 Q1018=
EGMC 251450Z 24011KT 9999 FEW043 15/07 Q1018=
EGMC 251420Z 24011KT 9999 FEW038 16/07 Q1018=
EGMC 251350Z 25011KT 9999 FEW043 16/06 Q1018=
EGMC 251320Z 24013KT 9999 FEW046 15/06 Q1018=
EGMC 251250Z 24011KT 210V280 9999 FEW040 SCT048 15/06 Q1018=
EGMC 251220Z 24011KT 9999 FEW040 15/06 Q1018=
EGMC 251150Z 24010KT 9999 FEW043 15/06 Q1018=
EGMC 251120Z 23008KT 9999 FEW043 14/08 Q1019=
EGMC 251050Z 23007KT 9999 BKN043 13/08 Q1019=
EGMC 251020Z 23007KT 9999 BKN040 13/09 Q1019=
EGMC 250950Z 22006KT 9999 BKN040 12/09 Q1018=
EGMC 250920Z 23006KT 9999 BKN038 11/08 Q1018=
EGMC 250850Z 23004KT 9999 BKN040 10/07 Q1018=
EGMC 250820Z 23002KT 9999 BKN040 10/08 Q1018=
EGMC 250750Z 27003KT 9999 BKN043 09/07 Q1018=
EGMC 250720Z 25004KT 9999 FEW043 08/06 Q1018=
EGMC 250650Z 22005KT 9999 FEW045 07/06 Q1017=
EGMC 250620Z 24005KT CAVOK 08/06 Q1017=
EGMC 250550Z 25004KT CAVOK 08/07 Q1017=
EGMC 250520Z 26003KT CAVOK 08/07 Q1016=
EGMC 250450Z 25004KT CAVOK 08/07 Q1016=
EGMC 250420Z 25005KT CAVOK 08/07 Q1016=